Aviation Digital Data Service (ADDS)

Output produced by METARs form (0431 UTC 13 February 2016)
found at http://aviationweather.gov/adds/metars/
 
KORD 130305Z 1303/1406 32015G25KT P6SM SKC 
     FM130800 31012KT P6SM SKC 
     FM140000 VRB03KT P6SM SKC